Lexington (LEX/KLEX)

Map

Destinations

Information

Location
Lexington, KY
Local Time
19:26 / 7:26 pm
GMT Time
00:26 / 12:26 am
Gates
Unassigned
No FAA reported delays
METAR KLEX 222354Z 04007KT 10SM FEW046 13/10 A2938 RMK AO2 RAE00 SLP947 P0000 60000 T01330100 10144 20133 58002 $
TAF KLEX 222326Z 2300/2324 05010KT P6SM VCSH OVC021 FM230500 36012G18KT 3SM -SHRA BR OVC008 TEMPO 2313/2317 1SM SHRA BR OVC004
  • No charts available